Time;durP1;ratioP1;P1;durP2;ratioP2;P2;SDS_P1;SDS_P2;PMS_P1;PMS_P2;Temp;Humidity;BMP_temperature;BMP_pressure;BME280_temperature;BME280_humidity;BME280_pressure;Samples;Min_cycle;Max_cycle;Signal;HPM_P1;HPM_P2
2022/04/21 00:00:59;;;;;;;17.58;9.40;;;;;;;;;;5113200;28;20072;-70
2022/04/21 00:03:25;;;;;;;17.45;10.05;;;;;;;;;;5112934;28;20483;-68
2022/04/21 00:05:50;;;;;;;14.65;9.68;;;;;;;;;;5112859;28;20415;-69
2022/04/21 00:08:17;;;;;;;15.55;10.07;;;;;;;;;;5112624;28;20403;-71
2022/04/21 00:10:43;;;;;;;15.13;10.25;;;;;;;;;;5112983;28;20039;-68
2022/04/21 00:13:08;;;;;;;18.40;9.93;;;;;;;;;;5112646;27;20029;-72
2022/04/21 00:15:34;;;;;;;15.10;9.77;;;;;;;;;;5112758;28;20019;-69
2022/04/21 00:18:01;;;;;;;18.25;10.20;;;;;;;;;;5112589;28;20024;-69
2022/04/21 00:20:26;;;;;;;16.63;9.18;;;;;;;;;;5113013;28;20016;-69
2022/04/21 00:25:37;;;;;;;22.92;10.05;;;;;;;;;;5112239;28;20059;-70
2022/04/21 00:28:03;;;;;;;14.45;10.00;;;;;;;;;;5112389;28;20023;-71
2022/04/21 00:30:29;;;;;;;15.20;10.07;;;;;;;;;;5112133;28;20406;-68
2022/04/21 00:32:54;;;;;;;16.40;9.70;;;;;;;;;;5112395;28;20030;-69
2022/04/21 00:35:20;;;;;;;17.48;9.85;;;;;;;;;;5112687;28;20024;-70
2022/04/21 00:37:51;;;;;;;15.63;9.88;;;;;;;;;;5112606;28;20484;-69
2022/04/21 00:40:18;;;;;;;16.40;9.55;;;;;;;;;;5112176;28;20042;-68
2022/04/21 00:42:44;;;;;;;16.20;10.20;;;;;;;;;;5111835;27;20024;-71
2022/04/21 00:45:10;;;;;;;23.35;10.40;;;;;;;;;;5111927;28;20027;-68
2022/04/21 00:47:40;;;;;;;17.52;10.23;;;;;;;;;;5112082;28;20037;-70
2022/04/21 00:50:09;;;;;;;13.40;9.32;;;;;;;;;;5112026;28;20260;-69
2022/04/21 00:52:38;;;;;;;15.43;10.00;;;;;;;;;;5111893;28;20487;-69
2022/04/21 00:55:05;;;;;;;12.52;9.68;;;;;;;;;;5112255;28;20034;-72
2022/04/21 00:57:31;;;;;;;16.10;9.70;;;;;;;;;;5111680;28;20110;-70
2022/04/21 00:59:57;;;;;;;14.15;9.68;;;;;;;;;;5111541;28;20031;-72
2022/04/21 01:05:08;;;;;;;15.93;9.68;;;;;;;;;;5111626;28;20080;-68
2022/04/21 01:07:34;;;;;;;14.73;9.63;;;;;;;;;;5110982;28;20032;-69
2022/04/21 01:09:59;;;;;;;13.75;9.27;;;;;;;;;;5111729;28;20053;-68
2022/04/21 01:12:25;;;;;;;14.57;8.77;;;;;;;;;;5111184;28;20059;-68
2022/04/21 01:14:50;;;;;;;12.88;8.30;;;;;;;;;;5111651;28;20019;-67
2022/04/21 01:17:16;;;;;;;12.95;8.15;;;;;;;;;;5111177;27;20020;-69
2022/04/21 01:19:41;;;;;;;13.77;7.97;;;;;;;;;;5111521;27;20024;-69
2022/04/21 01:22:10;;;;;;;13.63;8.40;;;;;;;;;;5111300;28;20483;-69
2022/04/21 01:24:35;;;;;;;12.70;8.27;;;;;;;;;;5111186;28;20130;-68
2022/04/21 01:27:01;;;;;;;12.68;8.00;;;;;;;;;;5111237;28;20444;-69
2022/04/21 01:29:27;;;;;;;15.02;8.50;;;;;;;;;;5111233;28;20019;-70
2022/04/21 01:31:53;;;;;;;11.27;8.10;;;;;;;;;;5111054;28;20070;-68
2022/04/21 01:34:19;;;;;;;13.00;8.40;;;;;;;;;;5110950;28;20104;-70
2022/04/21 01:42:16;;;;;;;14.50;7.80;;;;;;;;;;5111342;28;20038;-72
2022/04/21 01:44:43;;;;;;;15.07;8.52;;;;;;;;;;5110948;28;20042;-69
2022/04/21 01:47:09;;;;;;;12.65;8.55;;;;;;;;;;5111042;28;20076;-69
2022/04/21 01:49:34;;;;;;;13.93;8.65;;;;;;;;;;5110829;28;20028;-69
2022/04/21 01:51:59;;;;;;;12.00;8.43;;;;;;;;;;5110720;28;20415;-72
2022/04/21 01:54:25;;;;;;;11.98;8.48;;;;;;;;;;5110654;28;20082;-70
2022/04/21 01:56:50;;;;;;;10.50;7.97;;;;;;;;;;5111002;28;20375;-72
2022/04/21 01:59:16;;;;;;;11.30;7.60;;;;;;;;;;5110714;28;20103;-68
2022/04/21 02:01:41;;;;;;;12.10;7.53;;;;;;;;;;5110996;28;20024;-68
2022/04/21 02:04:07;;;;;;;14.75;7.60;;;;;;;;;;5110560;28;20027;-68
2022/04/21 02:06:32;;;;;;;10.30;7.53;;;;;;;;;;5110651;28;20030;-71
2022/04/21 02:08:58;;;;;;;11.70;7.55;;;;;;;;;;5110795;28;20039;-71
2022/04/21 02:11:24;;;;;;;12.55;8.05;;;;;;;;;;5110675;28;20494;-70
2022/04/21 02:13:49;;;;;;;11.55;7.93;;;;;;;;;;5110533;28;20020;-69
2022/04/21 02:16:15;;;;;;;13.52;8.25;;;;;;;;;;5110613;28;20044;-70
2022/04/21 02:18:41;;;;;;;14.75;9.18;;;;;;;;;;5110255;28;20032;-73
2022/04/21 02:21:06;;;;;;;16.20;9.63;;;;;;;;;;5110545;28;20037;-72
2022/04/21 02:23:31;;;;;;;10.73;8.70;;;;;;;;;;5110041;28;20038;-69
2022/04/21 02:25:57;;;;;;;16.85;9.00;;;;;;;;;;5108870;28;20065;-69
2022/04/21 02:28:23;;;;;;;12.77;8.77;;;;;;;;;;5110548;28;20024;-71
2022/04/21 02:30:48;;;;;;;13.27;8.57;;;;;;;;;;5110319;28;20072;-72
2022/04/21 02:33:14;;;;;;;15.35;9.35;;;;;;;;;;5110286;28;20023;-69
2022/04/21 02:35:39;;;;;;;12.80;9.50;;;;;;;;;;5110609;28;20051;-69
2022/04/21 02:38:05;;;;;;;15.77;9.95;;;;;;;;;;5110374;28;20030;-69
2022/04/21 02:40:30;;;;;;;12.23;9.80;;;;;;;;;;5110254;28;20023;-69
2022/04/21 02:42:56;;;;;;;12.90;8.50;;;;;;;;;;5109985;28;20058;-70
2022/04/21 02:45:22;;;;;;;12.75;8.80;;;;;;;;;;5110079;28;20057;-69
2022/04/21 02:47:48;;;;;;;14.68;8.85;;;;;;;;;;5110344;28;20548;-69
2022/04/21 02:50:16;;;;;;;13.48;8.45;;;;;;;;;;5110281;28;20035;-71
2022/04/21 02:52:42;;;;;;;11.52;8.20;;;;;;;;;;5110162;28;20016;-70
2022/04/21 02:57:53;;;;;;;13.80;7.82;;;;;;;;;;5110573;28;20089;-69
2022/04/21 03:00:19;;;;;;;12.57;8.63;;;;;;;;;;5109948;28;20391;-71
2022/04/21 03:02:44;;;;;;;13.35;8.13;;;;;;;;;;5109964;28;20015;-70
2022/04/21 03:05:11;;;;;;;12.07;7.68;;;;;;;;;;5110084;28;20495;-70
2022/04/21 03:07:36;;;;;;;14.05;7.78;;;;;;;;;;5110166;28;20024;-69
2022/04/21 03:10:02;;;;;;;13.05;7.43;;;;;;;;;;5109985;28;20019;-70
2022/04/21 03:12:28;;;;;;;12.52;7.10;;;;;;;;;;5110193;28;20023;-71
2022/04/21 03:14:58;;;;;;;13.98;7.15;;;;;;;;;;5108277;28;20062;-71
2022/04/21 03:17:24;;;;;;;13.40;6.85;;;;;;;;;;5110155;28;20051;-71
2022/04/21 03:19:50;;;;;;;9.02;6.90;;;;;;;;;;5108388;28;20066;-69
2022/04/21 03:25:05;;;;;;;11.32;5.82;;;;;;;;;;5109484;28;20096;-72
2022/04/21 03:27:31;;;;;;;7.63;6.45;;;;;;;;;;5110008;28;20068;-69
2022/04/21 03:29:57;;;;;;;9.95;6.72;;;;;;;;;;5111268;28;20061;-68
2022/04/21 03:32:23;;;;;;;8.25;5.88;;;;;;;;;;5113369;28;20067;-71
2022/04/21 03:34:48;;;;;;;12.32;6.43;;;;;;;;;;5113144;28;20030;-68
2022/04/21 03:37:15;;;;;;;11.40;7.05;;;;;;;;;;5113377;28;20410;-68
2022/04/21 03:39:42;;;;;;;12.38;6.75;;;;;;;;;;5113634;28;20023;-69
2022/04/21 03:42:20;;;;;;;8.32;5.78;;;;;;;;;;5113254;28;20111;-70
2022/04/21 03:44:46;;;;;;;7.88;6.00;;;;;;;;;;5113106;28;20080;-68
2022/04/21 03:47:11;;;;;;;11.10;6.25;;;;;;;;;;5113268;28;20032;-71
2022/04/21 03:49:37;;;;;;;9.55;6.32;;;;;;;;;;5113009;28;20035;-72
2022/04/21 03:52:03;;;;;;;10.45;6.13;;;;;;;;;;5113155;28;20190;-68
2022/04/21 03:54:28;;;;;;;8.75;5.95;;;;;;;;;;5112881;28;20039;-71
2022/04/21 03:56:54;;;;;;;8.75;5.72;;;;;;;;;;5112963;28;20023;-71
2022/04/21 03:59:21;;;;;;;10.13;5.15;;;;;;;;;;5112985;28;20026;-70
2022/04/21 04:01:46;;;;;;;7.88;4.80;;;;;;;;;;5113025;28;20061;-71
2022/04/21 04:04:13;;;;;;;7.70;5.03;;;;;;;;;;5112724;28;20103;-69
2022/04/21 04:12:10;;;;;;;7.15;3.92;;;;;;;;;;5112721;28;20453;-69
2022/04/21 04:14:37;;;;;;;6.05;3.63;;;;;;;;;;5112948;28;20070;-71
2022/04/21 04:17:03;;;;;;;9.70;3.42;;;;;;;;;;5112742;28;20159;-68
2022/04/21 04:19:29;;;;;;;6.97;4.00;;;;;;;;;;5112466;28;20398;-70
2022/04/21 04:21:54;;;;;;;7.57;3.70;;;;;;;;;;5112532;28;20126;-70
2022/04/21 04:24:19;;;;;;;8.15;3.85;;;;;;;;;;5112048;28;20019;-73
2022/04/21 04:26:45;;;;;;;7.57;3.70;;;;;;;;;;5112328;28;20034;-70
2022/04/21 04:29:11;;;;;;;6.72;3.33;;;;;;;;;;5112333;28;20024;-69
2022/04/21 04:31:39;;;;;;;10.07;3.60;;;;;;;;;;5112318;28;20036;-68
2022/04/21 04:34:05;;;;;;;7.70;3.65;;;;;;;;;;5110918;28;20028;-70
2022/04/21 04:36:30;;;;;;;7.25;3.25;;;;;;;;;;5112714;28;20084;-70
2022/04/21 04:38:55;;;;;;;6.78;3.45;;;;;;;;;;5112386;28;20024;-68
2022/04/21 04:44:05;;;;;;;7.68;3.28;;;;;;;;;;5111892;28;20407;-70
2022/04/21 04:46:39;;;;;;;6.35;2.90;;;;;;;;;;5110830;28;20475;-70
2022/04/21 04:49:06;;;;;;;6.55;2.97;;;;;;;;;;5112157;28;20023;-71
2022/04/21 04:51:33;;;;;;;8.52;2.38;;;;;;;;;;5111950;28;20039;-71
2022/04/21 04:53:59;;;;;;;6.78;2.45;;;;;;;;;;5112093;28;20399;-68
2022/04/21 04:56:26;;;;;;;7.28;2.50;;;;;;;;;;5111969;28;20536;-69
2022/04/21 04:58:52;;;;;;;7.70;2.60;;;;;;;;;;5111882;28;20072;-70
2022/04/21 05:01:45;;;;;;;8.00;2.45;;;;;;;;;;5111970;28;20024;-72
2022/04/21 05:04:12;;;;;;;5.45;2.45;;;;;;;;;;5110537;28;20127;-72
2022/04/21 05:06:48;;;;;;;6.85;2.25;;;;;;;;;;5111739;28;20016;-72
2022/04/21 05:09:15;;;;;;;7.15;2.70;;;;;;;;;;5111890;28;20028;-69
2022/04/21 05:11:43;;;;;;;6.22;2.30;;;;;;;;;;5111681;28;20064;-68
2022/04/21 05:14:10;;;;;;;5.40;2.10;;;;;;;;;;5111131;28;20024;-68
2022/04/21 05:16:37;;;;;;;11.07;1.85;;;;;;;;;;5111314;28;20027;-70
2022/04/21 05:19:21;;;;;;;8.85;2.28;;;;;;;;;;5111278;28;20031;-70
2022/04/21 05:21:49;;;;;;;7.05;2.45;;;;;;;;;;5111603;28;20440;-69
2022/04/21 05:24:15;;;;;;;5.30;2.30;;;;;;;;;;5110979;28;20031;-69
2022/04/21 05:26:42;;;;;;;5.88;2.10;;;;;;;;;;5111482;28;20093;-68
2022/04/21 05:31:56;;;;;;;3.53;2.10;;;;;;;;;;5111246;28;20517;-69
2022/04/21 05:34:26;;;;;;;4.47;2.10;;;;;;;;;;5111198;28;20027;-69
2022/04/21 05:36:53;;;;;;;9.13;2.60;;;;;;;;;;5111016;28;20027;-68
2022/04/21 05:39:19;;;;;;;8.13;2.70;;;;;;;;;;5111125;28;20250;-70
2022/04/21 05:41:44;;;;;;;6.13;2.35;;;;;;;;;;5111071;28;20425;-68
2022/04/21 05:44:11;;;;;;;6.68;2.33;;;;;;;;;;5110867;28;20026;-70
2022/04/21 05:46:36;;;;;;;6.78;2.30;;;;;;;;;;5110935;27;20027;-69
2022/04/21 05:49:03;;;;;;;6.28;2.17;;;;;;;;;;5110780;28;20050;-72
2022/04/21 05:51:28;;;;;;;8.07;2.63;;;;;;;;;;5110467;28;20031;-69
2022/04/21 05:53:57;;;;;;;7.57;2.80;;;;;;;;;;5109951;28;20067;-69
2022/04/21 05:56:23;;;;;;;9.00;2.60;;;;;;;;;;5111119;28;20016;-71
2022/04/21 05:58:48;;;;;;;7.05;3.17;;;;;;;;;;5110729;28;20026;-72
2022/04/21 06:01:14;;;;;;;9.32;2.80;;;;;;;;;;5110775;28;20043;-70
2022/04/21 06:03:39;;;;;;;8.30;2.80;;;;;;;;;;5110891;28;20028;-71
2022/04/21 06:06:06;;;;;;;10.10;2.90;;;;;;;;;;5110319;28;20412;-68
2022/04/21 06:08:32;;;;;;;10.90;3.40;;;;;;;;;;5110401;28;20475;-67
2022/04/21 06:10:58;;;;;;;9.23;3.30;;;;;;;;;;5110460;28;20039;-68
2022/04/21 06:13:25;;;;;;;11.70;3.30;;;;;;;;;;5110644;28;20031;-71
2022/04/21 06:15:50;;;;;;;5.28;2.83;;;;;;;;;;5110475;28;20028;-69
2022/04/21 06:18:16;;;;;;;11.93;3.10;;;;;;;;;;5110523;28;20085;-69
2022/04/21 06:20:42;;;;;;;10.73;2.63;;;;;;;;;;5111082;28;20421;-68
2022/04/21 06:23:07;;;;;;;8.77;3.00;;;;;;;;;;5110341;28;20107;-69
2022/04/21 06:25:34;;;;;;;8.80;3.25;;;;;;;;;;5109865;28;20092;-72
2022/04/21 06:27:59;;;;;;;15.55;3.75;;;;;;;;;;5110176;28;20027;-68
2022/04/21 06:30:24;;;;;;;11.40;3.28;;;;;;;;;;5110058;28;20019;-71
2022/04/21 06:32:50;;;;;;;5.53;2.83;;;;;;;;;;5110467;28;20020;-68
2022/04/21 06:35:17;;;;;;;14.27;3.88;;;;;;;;;;5110605;28;20028;-68
2022/04/21 06:37:43;;;;;;;14.40;3.58;;;;;;;;;;5110333;28;20445;-68
2022/04/21 06:40:09;;;;;;;10.32;3.50;;;;;;;;;;5110399;28;20542;-70
2022/04/21 06:42:37;;;;;;;10.35;3.35;;;;;;;;;;5109916;28;20019;-68
2022/04/21 06:48:04;;;;;;;10.40;2.85;;;;;;;;;;5110142;28;20110;-69
2022/04/21 06:50:33;;;;;;;15.07;3.67;;;;;;;;;;5110011;28;20027;-71
2022/04/21 06:52:59;;;;;;;6.35;2.35;;;;;;;;;;5110198;28;20057;-73
2022/04/21 06:55:24;;;;;;;9.48;2.53;;;;;;;;;;5109771;28;20415;-72
2022/04/21 06:57:50;;;;;;;9.07;2.53;;;;;;;;;;5109919;28;20023;-69
2022/04/21 07:00:16;;;;;;;7.28;2.28;;;;;;;;;;5109645;28;20487;-71
2022/04/21 07:02:42;;;;;;;10.15;2.47;;;;;;;;;;5109617;28;20031;-68
2022/04/21 07:05:10;;;;;;;7.75;2.60;;;;;;;;;;5111539;28;20463;-69
2022/04/21 07:07:36;;;;;;;14.52;2.60;;;;;;;;;;5113803;28;20103;-72
2022/04/21 07:10:03;;;;;;;8.02;2.47;;;;;;;;;;5113928;28;20084;-72
2022/04/21 07:12:29;;;;;;;8.90;2.70;;;;;;;;;;5113747;28;20368;-71
2022/04/21 07:15:04;;;;;;;10.02;2.63;;;;;;;;;;5113415;28;20136;-72
2022/04/21 07:17:29;;;;;;;7.32;2.67;;;;;;;;;;5113378;28;20020;-73
2022/04/21 07:19:55;;;;;;;8.73;2.63;;;;;;;;;;5113621;28;20100;-68
2022/04/21 07:22:24;;;;;;;8.48;2.33;;;;;;;;;;5114087;27;20019;-68
2022/04/21 07:24:50;;;;;;;9.35;2.70;;;;;;;;;;5113555;28;20051;-69
2022/04/21 07:27:15;;;;;;;8.20;2.40;;;;;;;;;;5113793;28;20471;-69
2022/04/21 07:29:41;;;;;;;10.30;2.50;;;;;;;;;;5113923;28;20031;-73
2022/04/21 07:32:07;;;;;;;13.90;2.65;;;;;;;;;;5113441;28;20065;-68
2022/04/21 07:34:34;;;;;;;11.60;2.45;;;;;;;;;;5113194;28;20023;-70
2022/04/21 07:36:59;;;;;;;7.18;2.70;;;;;;;;;;5113152;28;20028;-72
2022/04/21 07:39:25;;;;;;;6.13;2.67;;;;;;;;;;5113838;28;20106;-69
2022/04/21 07:41:50;;;;;;;11.18;2.53;;;;;;;;;;5113692;28;20490;-68
2022/04/21 07:44:16;;;;;;;7.07;2.42;;;;;;;;;;5113774;27;20438;-70
2022/04/21 07:46:41;;;;;;;6.47;2.33;;;;;;;;;;5113478;28;20468;-69
2022/04/21 07:51:51;;;;;;;7.70;2.30;;;;;;;;;;5112973;28;20055;-71
2022/04/21 07:54:16;;;;;;;7.13;2.22;;;;;;;;;;5113049;28;20016;-68
2022/04/21 07:56:41;;;;;;;8.25;2.35;;;;;;;;;;5112917;28;20023;-69
2022/04/21 07:59:07;;;;;;;4.55;2.05;;;;;;;;;;5113097;28;20024;-71
2022/04/21 08:01:33;;;;;;;6.43;2.40;;;;;;;;;;5113232;28;20425;-69
2022/04/21 08:04:02;;;;;;;6.15;1.80;;;;;;;;;;5112992;28;20027;-69
2022/04/21 08:06:30;;;;;;;8.82;2.30;;;;;;;;;;5112733;28;20035;-69
2022/04/21 08:08:55;;;;;;;5.75;2.15;;;;;;;;;;5112781;28;20028;-73
2022/04/21 08:11:21;;;;;;;6.57;2.50;;;;;;;;;;5112695;28;20091;-68
2022/04/21 08:13:47;;;;;;;9.95;2.58;;;;;;;;;;5112950;28;20031;-70
2022/04/21 08:16:13;;;;;;;8.63;2.50;;;;;;;;;;5112144;27;20035;-68
2022/04/21 08:18:38;;;;;;;12.98;2.40;;;;;;;;;;5112599;28;20031;-70
2022/04/21 08:21:05;;;;;;;8.63;2.38;;;;;;;;;;5112520;28;20027;-73
2022/04/21 08:23:35;;;;;;;13.93;2.50;;;;;;;;;;5112330;28;20046;-68
2022/04/21 08:32:33;;;;;;;11.27;2.70;;;;;;;;;;5112466;28;20116;-69
2022/04/21 08:34:22;;;;;;;9.80;3.00;;;;;;;;;;5112163;28;20027;-68
2022/04/21 08:36:47;;;;;;;11.48;3.13;;;;;;;;;;5112263;28;20031;-72
2022/04/21 08:39:13;;;;;;;9.02;3.00;;;;;;;;;;5111992;28;20019;-69
2022/04/21 08:41:47;;;;;;;12.50;2.92;;;;;;;;;;5111985;28;20027;-68
2022/04/21 08:44:15;;;;;;;9.07;2.53;;;;;;;;;;5111644;28;20396;-72
2022/04/21 08:46:41;;;;;;;7.30;2.67;;;;;;;;;;5111657;28;20027;-68
2022/04/21 08:49:07;;;;;;;8.18;2.80;;;;;;;;;;5111846;28;20591;-72
2022/04/21 08:51:33;;;;;;;8.15;2.80;;;;;;;;;;5111931;28;20031;-68
2022/04/21 08:54:02;;;;;;;9.10;2.97;;;;;;;;;;5111973;28;20471;-71
2022/04/21 08:56:28;;;;;;;5.15;2.50;;;;;;;;;;5111915;28;20391;-69
2022/04/21 08:58:54;;;;;;;8.50;2.70;;;;;;;;;;5111640;28;20038;-70
2022/04/21 09:01:19;;;;;;;10.73;2.88;;;;;;;;;;5111592;28;20419;-68
2022/04/21 09:03:47;;;;;;;9.48;2.58;;;;;;;;;;5111557;28;20051;-71
2022/04/21 09:06:13;;;;;;;7.43;2.85;;;;;;;;;;5111583;28;20442;-68
2022/04/21 09:08:38;;;;;;;13.18;3.22;;;;;;;;;;5111686;28;20028;-69
2022/04/21 09:11:08;;;;;;;8.32;2.60;;;;;;;;;;5111462;28;20043;-67
2022/04/21 09:13:38;;;;;;;7.78;2.45;;;;;;;;;;5111775;28;20032;-69
2022/04/21 09:16:05;;;;;;;8.07;2.63;;;;;;;;;;5111153;28;20487;-68
2022/04/21 09:18:42;;;;;;;8.68;2.70;;;;;;;;;;5111672;28;20039;-71
2022/04/21 09:21:16;;;;;;;8.15;2.20;;;;;;;;;;5111286;28;20076;-68
2022/04/21 09:23:47;;;;;;;7.18;2.42;;;;;;;;;;5111486;28;20024;-69
2022/04/21 09:26:17;;;;;;;;;;;;;;;;;;5111370;28;20516;-72
2022/04/21 09:28:52;;;;;;;8.18;2.40;;;;;;;;;;5110878;28;19932;-68
2022/04/21 09:31:18;;;;;;;7.22;2.40;;;;;;;;;;5111023;28;20055;-68
2022/04/21 09:33:46;;;;;;;8.25;2.08;;;;;;;;;;5111214;28;20060;-68
2022/04/21 09:36:14;;;;;;;5.32;2.20;;;;;;;;;;5109738;28;20047;-69
2022/04/21 09:38:39;;;;;;;7.90;2.15;;;;;;;;;;5111049;28;20057;-67
2022/04/21 09:41:09;;;;;;;6.93;2.35;;;;;;;;;;5111041;28;20070;-69
2022/04/21 09:43:37;;;;;;;8.73;2.47;;;;;;;;;;5111068;28;20557;-68
2022/04/21 09:46:22;;;;;;;9.73;2.17;;;;;;;;;;5110817;28;20031;-68
2022/04/21 09:48:54;;;;;;;8.20;2.47;;;;;;;;;;5110925;28;20038;-71
2022/04/21 09:51:24;;;;;;;6.35;2.20;;;;;;;;;;5110682;28;20030;-69
2022/04/21 09:53:59;;;;;;;6.35;1.95;;;;;;;;;;5110729;27;20270;-68
2022/04/21 09:56:40;;;;;;;9.70;2.20;;;;;;;;;;5110736;28;20034;-72
2022/04/21 09:59:12;;;;;;;6.28;2.00;;;;;;;;;;5110641;28;20023;-69
2022/04/21 10:01:42;;;;;;;6.38;2.40;;;;;;;;;;5109800;28;20100;-73
2022/04/21 10:04:13;;;;;;;7.20;1.92;;;;;;;;;;5111187;28;20031;-69
2022/04/21 10:06:39;;;;;;;4.50;1.80;;;;;;;;;;5110568;28;20039;-70
2022/04/21 10:09:05;;;;;;;7.05;1.90;;;;;;;;;;5110488;28;20507;-72
2022/04/21 10:11:31;;;;;;;8.20;1.90;;;;;;;;;;5110339;28;20020;-71
2022/04/21 10:13:57;;;;;;;10.50;1.88;;;;;;;;;;5110560;28;20020;-73
2022/04/21 10:16:26;;;;;;;10.52;1.95;;;;;;;;;;5108995;28;20028;-69
2022/04/21 10:18:54;;;;;;;5.68;1.83;;;;;;;;;;5110642;28;20290;-70
2022/04/21 10:21:26;;;;;;;5.75;1.73;;;;;;;;;;5110542;28;20024;-69
2022/04/21 10:23:52;;;;;;;7.30;1.92;;;;;;;;;;5110377;28;20445;-68
2022/04/21 10:26:36;;;;;;;5.03;1.80;;;;;;;;;;5109875;28;20036;-70
2022/04/21 10:29:15;;;;;;;3.85;1.58;;;;;;;;;;5110024;28;20035;-68
2022/04/21 10:32:05;;;;;;;4.38;1.70;;;;;;;;;;5110052;28;20039;-68
2022/04/21 10:34:40;;;;;;;4.70;1.73;;;;;;;;;;5110061;28;20074;-68
2022/04/21 10:37:08;;;;;;;4.45;2.00;;;;;;;;;;5110170;28;20544;-68
2022/04/21 10:39:34;;;;;;;5.32;2.08;;;;;;;;;;5113095;28;20387;-70
2022/04/21 10:42:19;;;;;;;5.38;1.90;;;;;;;;;;5114489;28;20028;-69
2022/04/21 10:44:49;;;;;;;4.20;1.85;;;;;;;;;;5112890;28;20142;-70
2022/04/21 10:47:41;;;;;;;4.32;1.88;;;;;;;;;;5114209;28;20026;-68
2022/04/21 10:50:20;;;;;;;4.60;1.70;;;;;;;;;;5114469;28;20467;-71
2022/04/21 10:58:37;;;;;;;5.28;2.05;;;;;;;;;;5114476;28;20042;-68
2022/04/21 11:01:10;;;;;;;7.15;1.85;;;;;;;;;;5113969;28;20440;-68
2022/04/21 11:03:38;;;;;;;4.68;1.80;;;;;;;;;;5114002;28;20034;-69
2022/04/21 11:06:07;;;;;;;4.32;1.73;;;;;;;;;;5113824;28;20032;-70
2022/04/21 11:08:33;;;;;;;5.68;1.90;;;;;;;;;;5114160;28;20019;-68
2022/04/21 11:10:59;;;;;;;6.18;2.00;;;;;;;;;;5113933;28;20391;-70
2022/04/21 11:13:47;;;;;;;4.07;1.83;;;;;;;;;;5114295;28;20368;-68
2022/04/21 11:16:42;;;;;;;4.07;1.70;;;;;;;;;;5110232;27;20161;-69
2022/04/21 11:19:29;;;;;;;5.25;1.70;;;;;;;;;;5113571;28;20043;-72
2022/04/21 11:22:05;;;;;;;5.20;1.85;;;;;;;;;;5113689;28;20031;-68
2022/04/21 11:24:55;;;;;;;5.50;1.90;;;;;;;;;;5113738;28;20043;-69
2022/04/21 11:27:21;;;;;;;8.02;2.25;;;;;;;;;;5113562;28;20123;-70
2022/04/21 11:29:46;;;;;;;6.57;2.20;;;;;;;;;;5113648;28;20388;-68
2022/04/21 11:32:16;;;;;;;5.30;1.95;;;;;;;;;;5113619;28;20024;-71
2022/04/21 11:34:42;;;;;;;4.60;2.00;;;;;;;;;;5113537;28;20027;-68
2022/04/21 11:37:08;;;;;;;5.82;2.20;;;;;;;;;;5113373;28;20031;-72
2022/04/21 11:39:38;;;;;;;4.15;2.00;;;;;;;;;;5113388;27;20015;-70
2022/04/21 11:42:03;;;;;;;4.80;2.40;;;;;;;;;;5113763;28;20114;-69
2022/04/21 11:44:29;;;;;;;7.32;2.42;;;;;;;;;;5113567;28;20122;-70
2022/04/21 11:46:54;;;;;;;6.07;2.20;;;;;;;;;;5113432;28;20048;-72
2022/04/21 11:49:20;;;;;;;5.55;2.20;;;;;;;;;;5113325;28;20478;-68
2022/04/21 11:51:52;;;;;;;6.07;2.30;;;;;;;;;;5112270;28;20031;-72
2022/04/21 11:54:17;;;;;;;6.50;2.05;;;;;;;;;;5113014;28;20028;-68
2022/04/21 11:56:49;;;;;;;6.90;2.28;;;;;;;;;;5112865;28;20433;-67
2022/04/21 11:59:14;;;;;;;4.07;1.90;;;;;;;;;;5113184;28;20027;-69
2022/04/21 12:07:16;;;;;;;3.90;1.90;;;;;;;;;;5112863;28;20299;-69
2022/04/21 12:09:42;;;;;;;7.32;2.10;;;;;;;;;;5112824;28;20043;-70
2022/04/21 12:12:08;;;;;;;7.53;2.20;;;;;;;;;;5112738;28;20148;-71
2022/04/21 12:14:34;;;;;;;4.22;1.80;;;;;;;;;;5112677;28;20685;-75
2022/04/21 12:17:04;;;;;;;4.32;1.70;;;;;;;;;;5112956;28;20031;-69
2022/04/21 12:19:41;;;;;;;5.97;2.00;;;;;;;;;;5112759;28;20059;-68
2022/04/21 12:22:16;;;;;;;5.85;1.98;;;;;;;;;;5112789;28;20031;-75
2022/04/21 12:24:43;;;;;;;4.47;2.03;;;;;;;;;;5112294;28;20044;-68
2022/04/21 12:27:23;;;;;;;4.72;1.65;;;;;;;;;;5112589;28;20038;-67
2022/04/21 12:29:53;;;;;;;6.70;1.80;;;;;;;;;;5111979;28;20038;-74
2022/04/21 12:32:25;;;;;;;6.63;1.95;;;;;;;;;;5112452;28;20026;-69
2022/04/21 12:34:55;;;;;;;7.18;1.80;;;;;;;;;;5112393;28;20045;-70
2022/04/21 12:37:29;;;;;;;5.57;1.73;;;;;;;;;;5112226;28;20028;-67
2022/04/21 12:39:55;;;;;;;6.60;2.30;;;;;;;;;;5112275;28;20487;-73
2022/04/21 12:42:21;;;;;;;4.82;1.92;;;;;;;;;;5110687;28;20081;-70
2022/04/21 12:44:48;;;;;;;5.28;1.90;;;;;;;;;;5112195;28;20019;-75
2022/04/21 12:47:18;;;;;;;7.93;1.90;;;;;;;;;;5112105;27;20536;-68
2022/04/21 12:49:56;;;;;;;7.43;2.20;;;;;;;;;;5112155;28;20051;-67
2022/04/21 12:52:33;;;;;;;8.52;2.35;;;;;;;;;;5112458;28;20118;-73
2022/04/21 12:55:00;;;;;;;5.90;1.83;;;;;;;;;;5112447;28;20479;-74
2022/04/21 12:57:27;;;;;;;7.43;1.80;;;;;;;;;;5111884;28;20110;-69
2022/04/21 12:59:53;;;;;;;8.20;2.22;;;;;;;;;;5111813;28;20028;-70
2022/04/21 13:02:19;;;;;;;5.88;1.83;;;;;;;;;;5111330;28;20123;-74
2022/04/21 13:04:45;;;;;;;7.28;1.92;;;;;;;;;;5111675;28;20102;-75
2022/04/21 13:07:10;;;;;;;7.85;2.00;;;;;;;;;;5111403;28;20062;-69
2022/04/21 13:09:36;;;;;;;13.27;2.50;;;;;;;;;;5112145;28;20058;-68
2022/04/21 13:12:03;;;;;;;5.32;2.00;;;;;;;;;;5111431;28;20276;-70
2022/04/21 13:14:28;;;;;;;6.28;1.90;;;;;;;;;;5111309;28;20074;-69
2022/04/21 13:16:54;;;;;;;6.65;2.35;;;;;;;;;;5111398;28;20027;-70
2022/04/21 13:19:19;;;;;;;9.65;2.35;;;;;;;;;;5111295;28;20077;-68
2022/04/21 13:21:55;;;;;;;6.07;2.10;;;;;;;;;;5111075;28;20052;-70
2022/04/21 13:24:28;;;;;;;7.38;1.75;;;;;;;;;;5111557;28;20053;-68
2022/04/21 13:26:55;;;;;;;10.02;2.20;;;;;;;;;;5111269;27;20024;-75
2022/04/21 13:29:21;;;;;;;7.55;2.05;;;;;;;;;;5111249;28;20487;-69
2022/04/21 13:34:32;;;;;;;8.35;2.03;;;;;;;;;;5111245;28;20031;-68
2022/04/21 13:36:58;;;;;;;6.40;1.90;;;;;;;;;;5110781;27;20020;-72
2022/04/21 13:39:23;;;;;;;7.97;1.85;;;;;;;;;;5111216;28;20028;-68
2022/04/21 13:41:49;;;;;;;9.00;2.25;;;;;;;;;;5111220;28;20388;-71
2022/04/21 13:44:15;;;;;;;9.35;2.50;;;;;;;;;;5110957;28;20032;-69
2022/04/21 13:46:41;;;;;;;10.88;2.20;;;;;;;;;;5111035;28;20024;-74
2022/04/21 13:49:10;;;;;;;9.73;2.17;;;;;;;;;;5110733;28;20487;-75
2022/04/21 13:51:38;;;;;;;9.57;1.88;;;;;;;;;;5110831;28;20032;-73
2022/04/21 13:54:04;;;;;;;6.57;2.00;;;;;;;;;;5110885;28;20020;-72
2022/04/21 13:56:30;;;;;;;6.03;2.00;;;;;;;;;;5110798;28;20076;-72
2022/04/21 13:58:56;;;;;;;7.97;2.22;;;;;;;;;;5110696;28;20365;-67
2022/04/21 14:01:22;;;;;;;9.00;2.58;;;;;;;;;;5110733;28;20105;-69
2022/04/21 14:03:48;;;;;;;9.07;2.20;;;;;;;;;;5110908;28;20024;-69
2022/04/21 14:06:14;;;;;;;9.90;2.42;;;;;;;;;;5110833;28;20404;-69
2022/04/21 14:08:44;;;;;;;7.60;2.50;;;;;;;;;;5110517;28;20467;-69
2022/04/21 14:11:12;;;;;;;9.48;2.78;;;;;;;;;;5110257;28;20111;-69
2022/04/21 14:13:38;;;;;;;5.75;2.38;;;;;;;;;;5109940;28;20190;-70
2022/04/21 14:16:05;;;;;;;6.22;2.60;;;;;;;;;;5110293;28;20488;-72
2022/04/21 14:18:30;;;;;;;8.40;2.40;;;;;;;;;;5110406;28;20098;-68
2022/04/21 14:20:56;;;;;;;8.48;2.80;;;;;;;;;;5110955;28;20123;-70
2022/04/21 14:23:24;;;;;;;9.15;2.65;;;;;;;;;;5110565;28;20239;-71
2022/04/21 14:25:53;;;;;;;9.77;2.58;;;;;;;;;;5110427;28;20094;-69
2022/04/21 14:28:18;;;;;;;7.63;2.47;;;;;;;;;;5110145;28;20036;-73
2022/04/21 14:30:44;;;;;;;7.05;2.50;;;;;;;;;;5110026;28;20464;-68
2022/04/21 14:33:09;;;;;;;8.50;2.42;;;;;;;;;;5110282;28;20028;-68
2022/04/21 14:35:36;;;;;;;8.82;2.40;;;;;;;;;;5110382;28;20031;-68
2022/04/21 14:46:14;;;;;;;7.25;2.53;;;;;;;;;;5110321;28;20039;-66
2022/04/21 14:48:39;;;;;;;5.95;2.20;;;;;;;;;;5110290;28;20019;-72
2022/04/21 14:51:05;;;;;;;6.50;1.98;;;;;;;;;;5110139;28;20023;-73
2022/04/21 14:53:31;;;;;;;6.90;2.03;;;;;;;;;;5110108;28;20111;-73
2022/04/21 14:55:57;;;;;;;6.75;2.22;;;;;;;;;;5110233;28;20193;-69
2022/04/21 14:58:22;;;;;;;7.82;2.30;;;;;;;;;;5110047;28;20049;-70
2022/04/21 15:00:48;;;;;;;10.10;2.10;;;;;;;;;;5110286;28;20410;-69
2022/04/21 15:03:13;;;;;;;6.32;2.17;;;;;;;;;;5109735;28;20032;-70
2022/04/21 15:05:40;;;;;;;5.85;2.20;;;;;;;;;;5109834;28;20092;-69
2022/04/21 15:08:07;;;;;;;7.63;2.15;;;;;;;;;;5109727;28;20019;-69
2022/04/21 15:10:34;;;;;;;7.07;2.00;;;;;;;;;;5110202;28;20028;-73
2022/04/21 15:12:59;;;;;;;6.32;2.20;;;;;;;;;;5109926;28;20487;-71
2022/04/21 15:15:25;;;;;;;4.60;2.00;;;;;;;;;;5110017;28;20123;-69
2022/04/21 15:17:51;;;;;;;5.47;2.20;;;;;;;;;;5109604;28;20024;-67
2022/04/21 15:20:16;;;;;;;4.75;2.00;;;;;;;;;;5109785;28;20399;-74
2022/04/21 15:22:42;;;;;;;4.22;1.80;;;;;;;;;;5109745;28;20031;-72
2022/04/21 15:25:08;;;;;;;5.97;2.00;;;;;;;;;;5110434;28;20472;-69
2022/04/21 15:27:34;;;;;;;12.02;1.98;;;;;;;;;;5113679;28;20023;-69
2022/04/21 15:30:00;;;;;;;8.27;1.73;;;;;;;;;;5113882;28;20016;-70
2022/04/21 15:32:25;;;;;;;5.90;1.85;;;;;;;;;;5113691;28;20467;-72
2022/04/21 15:34:51;;;;;;;8.23;2.00;;;;;;;;;;5113620;28;20080;-68
2022/04/21 15:37:16;;;;;;;8.13;1.98;;;;;;;;;;5113386;28;20387;-67
2022/04/21 15:39:43;;;;;;;15.35;2.40;;;;;;;;;;5113534;28;20456;-73
2022/04/21 15:42:08;;;;;;;7.75;1.85;;;;;;;;;;5113253;28;20073;-68